Yang Mei Hu — BQCG — position and weather

sailwx.info

Track history (hours):
 
Tides and Currents Weather Stations Pressure Air Temp Water Temp Dewpoint Dewpoint Depression Visibility Wind Speed Wind Dir Waves Ship Positions

Yang Mei Hu

Last reported at 2015-Apr-12 23:33 UTC. Time now 2015-Apr-26 01:23 UTC.
Position N 01°14' E 103°58'.
Warning: this ship's position is 13 days out of date.

Length 245 m; draft 9 m.

Type: Tanker. MMSI: 413858000.

Date/timePositionNaut miles runAvg speedWind from/ knotsBaromVisibWave heightAir tempDewpointWater temp
2015-Apr-12 23:33N 01°14' E 103°58'3 2.6
2015-Apr-12 22:23N 01°15' E 103°55'0 0.1
2015-Apr-12 21:11N 01°15' E 103°55'0 0.0
2015-Apr-12 20:17N 01°15' E 103°55'0 0.0
2015-Apr-12 19:05N 01°15' E 103°55'0 0.0
2015-Apr-12 18:05N 01°15' E 103°55'0 0.0
2015-Apr-12 17:23N 01°15' E 103°55'0 0.0
2015-Apr-12 16:14N 01°15' E 103°55'0 0.0
2015-Apr-12 13:11N 01°15' E 103°55'1 0.1
2015-Apr-11 09:27N 01°14' E 103°55'1 0.6
2015-Apr-11 07:18N 01°15' E 103°54'0 0.0
2015-Apr-10 20:18N 01°15' E 103°54'0 0.0
2015-Apr-10 16:12N 01°15' E 103°54'0 0.0
2015-Apr-10 14:12N 01°15' E 103°54'0 0.0
2015-Apr-10 09:18N 01°15' E 103°54'0 0.0
2015-Apr-09 19:06N 01°15' E 103°54'0 0.0
2015-Apr-09 18:27N 01°15' E 103°54'0 0.0
2015-Apr-09 15:12N 01°15' E 103°54'0 0.0
2015-Apr-09 14:12N 01°15' E 103°54'0 0.0
2015-Apr-09 11:33N 01°15' E 103°54'11 8.4
2015-Apr-09 10:15N 01°17' E 104°05'  
Track history (hours):
 
Tides and Currents Weather Stations Pressure Air Temp Water Temp Dewpoint Dewpoint Depression Visibility Wind Speed Wind Dir Waves Ship Positions

Yang Mei Hu

Last reported at 2015-Apr-12 23:33 UTC. Time now 2015-Apr-26 01:23 UTC.
Position N 01°14' E 103°58'.
Warning: this ship's position is 13 days out of date.

Length 245 m; draft 9 m.

Type: Tanker. MMSI: 413858000.

Date/timePositionNaut miles runAvg speedWind from/ knotsBaromVisibWave heightAir tempDewpointWater temp
2015-Apr-12 23:33N 01°14' E 103°58'3 2.6
2015-Apr-12 22:23N 01°15' E 103°55'0 0.1
2015-Apr-12 21:11N 01°15' E 103°55'0 0.0
2015-Apr-12 20:17N 01°15' E 103°55'0 0.0
2015-Apr-12 19:05N 01°15' E 103°55'0 0.0
2015-Apr-12 18:05N 01°15' E 103°55'0 0.0
2015-Apr-12 17:23N 01°15' E 103°55'0 0.0
2015-Apr-12 16:14N 01°15' E 103°55'0 0.0
2015-Apr-12 13:11N 01°15' E 103°55'1 0.1
2015-Apr-11 09:27N 01°14' E 103°55'1 0.6
2015-Apr-11 07:18N 01°15' E 103°54'0 0.0
2015-Apr-10 20:18N 01°15' E 103°54'0 0.0
2015-Apr-10 16:12N 01°15' E 103°54'0 0.0
2015-Apr-10 14:12N 01°15' E 103°54'0 0.0
2015-Apr-10 09:18N 01°15' E 103°54'0 0.0
2015-Apr-09 19:06N 01°15' E 103°54'0 0.0
2015-Apr-09 18:27N 01°15' E 103°54'0 0.0
2015-Apr-09 15:12N 01°15' E 103°54'0 0.0
2015-Apr-09 14:12N 01°15' E 103°54'0 0.0
2015-Apr-09 11:33N 01°15' E 103°54'11 8.4
2015-Apr-09 10:15N 01°17' E 104°05'  

Dump ship's entire track history